Flight Training


We provide structured training required to obtain a pilots certificate ranging from a Private Pilot up to ATP flying for the major airlines.

If your desire to fly is for personal pleasure the first step is to find a professional FAA licensed flight instructor to begin your journey.

The one-hour introductory flight with an instructor lasts one hour and features a log book and a six-month subscription to Flight Training magazine. After flying you to the training area, your instructor will let you test the controls. Call us now

 

Aviation Weather

Available data for KLDJ from the past 2 hours
LINDEN, NJ
Metar
KLDJ 231035Z AUTO 33014G19KT 10SM OVC060 M01/M14 A2999 RMK AO2 T10101142

10:35 UTC

Wind: 330° 14kt

Visibility: 10 SM

Sky: OVC 6000 ft

Temp: -1 deg C / 30.2 deg F

Dewpoint: -14 deg C / 6.8 deg F

Pressure: 29.99 inHg


Available data for KEWR from the past hour
NEWARK, NJ
TAF
KEWR 230841Z 2309/2412 29014G23KT P6SM SCT040 BKN070 FM231200 29017G27KT P6SM SCT040 SCT070 FM231500 30021G30KT P6SM SCT040 SCT070 FM231700 31023G32KT P6SM SCT025 SCT040 FM240500 30014G23KT P6SM SKC

Our planes

Some of our students